createdAt,value
2022-12-03T00:00:37.429Z,-1.61
2022-12-03T00:03:07.094Z,-1.70
2022-12-03T00:05:37.115Z,-1.68
2022-12-03T00:08:07.401Z,-1.66
2022-12-03T00:10:37.679Z,-1.57
2022-12-03T00:13:07.300Z,-1.55
2022-12-03T00:15:37.176Z,-1.56
2022-12-03T00:18:07.532Z,-1.56
2022-12-03T00:20:37.328Z,-1.54
2022-12-03T00:23:06.844Z,-1.54
2022-12-03T00:25:37.568Z,-1.54
2022-12-03T00:28:07.759Z,-1.45
2022-12-03T00:30:38.515Z,-1.56
2022-12-03T00:33:08.369Z,-1.48
2022-12-03T00:35:38.454Z,-1.64
2022-12-03T00:38:08.292Z,-1.57
2022-12-03T00:40:38.377Z,-1.66
2022-12-03T00:43:08.205Z,-1.62
2022-12-03T00:45:38.366Z,-1.62
2022-12-03T00:48:08.196Z,-1.51
2022-12-03T00:50:38.031Z,-1.44
2022-12-03T00:53:07.865Z,-1.54
2022-12-03T00:55:37.970Z,-1.54
2022-12-03T00:58:08.620Z,-1.70
2022-12-03T01:00:38.833Z,-1.75
2022-12-03T01:03:08.410Z,-1.75
2022-12-03T01:05:38.341Z,-1.72
2022-12-03T01:08:08.056Z,-1.65
2022-12-03T01:10:37.873Z,-1.52
2022-12-03T01:13:07.401Z,-1.67
2022-12-03T01:15:37.252Z,-1.62
2022-12-03T01:18:06.788Z,-1.57
2022-12-03T01:20:36.595Z,-1.57
2022-12-03T01:23:06.827Z,-1.51
2022-12-03T01:25:36.331Z,-1.65
2022-12-03T01:28:07.664Z,-1.51
2022-12-03T01:30:41.686Z,-1.56
2022-12-03T01:33:11.188Z,-1.37
2022-12-03T01:35:41.001Z,-1.39
2022-12-03T01:38:10.546Z,-1.41
2022-12-03T01:40:40.108Z,-1.56
2022-12-03T01:43:09.926Z,-1.40
2022-12-03T01:45:40.025Z,-1.41
2022-12-03T01:48:12.564Z,-1.50
2022-12-03T01:50:42.710Z,-1.55
2022-12-03T01:53:15.388Z,-1.56
2022-12-03T01:55:48.584Z,-1.48
2022-12-03T01:58:20.018Z,-1.41
2022-12-03T02:00:49.837Z,-1.44
2022-12-03T02:03:27.185Z,-1.55
2022-12-03T02:05:57.073Z,-1.65
2022-12-03T02:08:35.961Z,-1.59
2022-12-03T02:11:12.526Z,-1.61
2022-12-03T02:13:43.374Z,-1.42
2022-12-03T02:16:13.290Z,-1.65
2022-12-03T02:18:44.310Z,-1.57
2022-12-03T02:21:23.232Z,-1.63
2022-12-03T02:24:18.587Z,-1.63
2022-12-03T02:26:48.405Z,-1.66
2022-12-03T02:29:18.281Z,-1.72
2022-12-03T02:31:48.498Z,-1.72
2022-12-03T02:34:39.251Z,-1.63
2022-12-03T02:37:12.242Z,-1.59
2022-12-03T02:39:45.321Z,-1.70
2022-12-03T02:42:32.894Z,-1.58
2022-12-03T02:45:11.626Z,-1.49
2022-12-03T02:47:48.230Z,-1.46
2022-12-03T02:50:21.073Z,-1.53
2022-12-03T02:52:52.551Z,-1.55
2022-12-03T02:55:23.400Z,-1.59
2022-12-03T02:57:53.676Z,-1.59
2022-12-03T03:00:25.115Z,-1.36
2022-12-03T03:02:55.129Z,-1.52
2022-12-03T03:05:25.986Z,-1.43
2022-12-03T03:07:58.299Z,-1.46
2022-12-03T03:10:29.520Z,-1.49
2022-12-03T03:12:59.881Z,-1.56
2022-12-03T03:15:29.525Z,-1.50
2022-12-03T03:17:59.723Z,-1.55
2022-12-03T03:20:29.589Z,-1.53
2022-12-03T03:23:08.211Z,-1.42
2022-12-03T03:25:39.046Z,-1.62
2022-12-03T03:28:09.113Z,-1.60
2022-12-03T03:30:41.362Z,-1.48
2022-12-03T03:33:13.048Z,-1.42
2022-12-03T03:35:45.022Z,-1.65
2022-12-03T03:38:17.969Z,-1.78
2022-12-03T03:40:49.946Z,-1.83
2022-12-03T03:43:20.826Z,-1.81
2022-12-03T03:45:52.251Z,-1.53
2022-12-03T03:48:23.603Z,-1.52
2022-12-03T03:50:53.820Z,-1.74
2022-12-03T03:53:24.281Z,-1.53
2022-12-03T03:55:54.415Z,-1.72
2022-12-03T03:58:24.019Z,-1.51
2022-12-03T04:00:53.911Z,-1.51
2022-12-03T04:03:23.541Z,-1.48
2022-12-03T04:05:53.055Z,-1.48
2022-12-03T04:08:23.697Z,-1.63
2022-12-03T04:11:11.552Z,-1.73
2022-12-03T04:13:41.357Z,-1.56
2022-12-03T04:16:12.296Z,-1.42
2022-12-03T04:18:44.865Z,-1.52
2022-12-03T04:21:36.716Z,-1.54
2022-12-03T04:24:09.174Z,-1.36
2022-12-03T04:26:58.240Z,-1.30
2022-12-03T04:29:28.651Z,-1.59
2022-12-03T04:32:17.089Z,-1.49
2022-12-03T04:35:04.843Z,-1.56
2022-12-03T04:37:34.691Z,-1.61
2022-12-03T04:40:06.161Z,-1.54
2022-12-03T04:42:35.996Z,-1.45
2022-12-03T04:45:07.053Z,-1.39
2022-12-03T04:47:39.866Z,-1.33
2022-12-03T04:50:09.083Z,-1.22
2022-12-03T04:52:39.204Z,-1.42
2022-12-03T04:55:09.453Z,-1.44
2022-12-03T04:57:39.266Z,-1.43
2022-12-03T05:00:09.708Z,-1.40
2022-12-03T05:02:39.765Z,-1.35
2022-12-03T05:05:10.844Z,-1.31
2022-12-03T05:07:40.453Z,-1.34
2022-12-03T05:10:12.096Z,-1.40
2022-12-03T05:12:42.834Z,-1.24
2022-12-03T05:15:12.704Z,-1.43
2022-12-03T05:17:42.529Z,-1.29
2022-12-03T05:20:30.601Z,-1.39
2022-12-03T05:23:00.271Z,-1.42
2022-12-03T05:25:30.128Z,-1.40
2022-12-03T05:28:01.872Z,-1.48
2022-12-03T05:30:31.518Z,-1.37
2022-12-03T05:33:01.468Z,-1.39
2022-12-03T05:35:31.428Z,-1.31
2022-12-03T05:38:01.310Z,-1.31
2022-12-03T05:40:31.112Z,-1.26
2022-12-03T05:43:04.016Z,-1.42
2022-12-03T05:45:36.892Z,-1.41
2022-12-03T05:48:08.361Z,-1.31
2022-12-03T05:50:38.193Z,-1.27
2022-12-03T05:53:18.336Z,-1.36
2022-12-03T05:55:47.075Z,-1.32
2022-12-03T05:58:18.415Z,-1.33
2022-12-03T06:00:48.546Z,-1.18
2022-12-03T06:03:18.560Z,-1.33
2022-12-03T06:05:48.344Z,-1.39
2022-12-03T06:08:18.246Z,-1.24
2022-12-03T06:10:48.088Z,-1.29
2022-12-03T06:13:17.652Z,-1.37
2022-12-03T06:15:47.528Z,-1.24
2022-12-03T06:18:17.920Z,-1.24
2022-12-03T06:20:47.564Z,-1.21
2022-12-03T06:23:17.383Z,-1.21
2022-12-03T06:25:49.020Z,-1.28
2022-12-03T06:28:18.850Z,-1.28
2022-12-03T06:30:49.040Z,-1.26
2022-12-03T06:33:18.750Z,-1.25
2022-12-03T06:35:48.600Z,-1.35
2022-12-03T06:38:18.301Z,-1.17
2022-12-03T06:40:48.143Z,-1.22
2022-12-03T06:43:17.931Z,-1.20
2022-12-03T06:45:48.229Z,-1.14
2022-12-03T06:48:17.669Z,-1.30
2022-12-03T06:50:47.491Z,-1.09
2022-12-03T06:53:17.309Z,-1.11
2022-12-03T06:55:48.094Z,-1.02
2022-12-03T06:58:17.918Z,-0.99
2022-12-03T07:00:47.589Z,-1.19
2022-12-03T07:03:18.438Z,-1.22
2022-12-03T07:05:48.244Z,-1.16
2022-12-03T07:08:17.874Z,-1.31
2022-12-03T07:10:47.741Z,-1.31
2022-12-03T07:13:17.244Z,-1.15
2022-12-03T07:15:47.114Z,-1.07
2022-12-03T07:18:18.901Z,-1.19
2022-12-03T07:20:48.985Z,-0.90
2022-12-03T07:23:18.501Z,-1.01
2022-12-03T07:25:48.403Z,-1.04
2022-12-03T07:28:21.165Z,-1.02
2022-12-03T07:30:50.988Z,-0.96
2022-12-03T07:33:21.009Z,-0.89
2022-12-03T07:35:50.823Z,-0.79
2022-12-03T07:38:20.636Z,-1.07
2022-12-03T07:40:50.456Z,-1.00
2022-12-03T07:43:20.642Z,-1.11
2022-12-03T07:45:50.442Z,-0.88
2022-12-03T07:48:19.949Z,-0.90
2022-12-03T07:50:49.831Z,-0.99
2022-12-03T07:53:19.611Z,-1.01
2022-12-03T07:55:49.428Z,-0.97
2022-12-03T07:58:19.078Z,-0.93
2022-12-03T08:00:49.008Z,-1.11
2022-12-03T08:03:19.600Z,-0.54
2022-12-03T08:05:49.464Z,-0.58
2022-12-03T08:08:19.936Z,-0.82
2022-12-03T08:10:49.851Z,-0.61
2022-12-03T08:13:20.393Z,-0.57
2022-12-03T08:15:50.350Z,-0.71
2022-12-03T08:18:22.466Z,-0.67
2022-12-03T08:20:53.394Z,-0.70
2022-12-03T08:23:25.741Z,-0.47
2022-12-03T08:25:55.516Z,-0.50
2022-12-03T08:28:30.568Z,-0.75
2022-12-03T08:31:17.386Z,-0.70
2022-12-03T08:33:49.687Z,-0.54
2022-12-03T08:36:34.151Z,-0.65
2022-12-03T08:39:09.943Z,-0.48
2022-12-03T08:41:57.648Z,-0.62
2022-12-03T08:44:34.368Z,-0.60
2022-12-03T08:47:13.086Z,-0.57
2022-12-03T08:49:45.554Z,-0.47
2022-12-03T08:52:17.754Z,-0.57
2022-12-03T08:54:58.679Z,-0.46
2022-12-03T08:57:31.409Z,-0.42
2022-12-03T09:00:23.862Z,-0.37
2022-12-03T09:02:56.180Z,-0.37
2022-12-03T09:05:33.459Z,-0.26
2022-12-03T09:08:03.384Z,-0.37
2022-12-03T09:10:34.529Z,-0.42
2022-12-03T09:13:04.505Z,-0.53
2022-12-03T09:15:36.713Z,-0.35
2022-12-03T09:18:06.549Z,-0.20
2022-12-03T09:20:36.364Z,-0.20
2022-12-03T09:23:07.395Z,-0.32
2022-12-03T09:25:37.522Z,-0.26
2022-12-03T09:28:07.364Z,-0.05
2022-12-03T09:30:37.237Z,0.07
2022-12-03T09:33:07.328Z,-0.04
2022-12-03T09:35:37.209Z,-0.19
2022-12-03T09:38:06.923Z,-0.14
2022-12-03T09:43:16.401Z,0.01
2022-12-03T09:45:48.837Z,-0.12
2022-12-03T09:48:21.580Z,0.01
2022-12-03T09:50:53.032Z,-0.01
2022-12-03T09:53:27.024Z,0.14
2022-12-03T09:56:01.189Z,0.09
2022-12-03T09:58:34.684Z,0.18
2022-12-03T10:01:02.715Z,0.16
2022-12-03T10:03:33.684Z,0.08
2022-12-03T10:06:03.284Z,0.15
2022-12-03T10:08:35.104Z,0.31
2022-12-03T10:11:05.097Z,0.27
2022-12-03T10:13:37.327Z,0.11
2022-12-03T10:16:08.681Z,0.17
2022-12-03T10:18:41.859Z,0.34
2022-12-03T10:21:14.522Z,0.43
2022-12-03T10:23:44.400Z,0.30
2022-12-03T10:26:15.539Z,0.38
2022-12-03T10:28:47.658Z,0.32
2022-12-03T10:31:23.145Z,0.32
2022-12-03T10:33:55.988Z,0.39
2022-12-03T10:36:27.889Z,0.39
2022-12-03T10:39:17.829Z,0.57
2022-12-03T10:41:49.152Z,0.57
2022-12-03T10:44:21.757Z,0.61
2022-12-03T10:47:09.997Z,0.56
2022-12-03T10:49:41.659Z,0.53
2022-12-03T10:52:25.295Z,0.53
2022-12-03T10:54:51.948Z,0.61
2022-12-03T10:57:22.376Z,0.65
2022-12-03T10:59:52.363Z,0.58
2022-12-03T11:02:24.622Z,0.56
2022-12-03T11:04:55.367Z,0.69
2022-12-03T11:07:31.635Z,0.86
2022-12-03T11:10:02.732Z,0.84
2022-12-03T11:12:35.598Z,0.72
2022-12-03T11:15:17.228Z,0.72
2022-12-03T11:17:54.455Z,0.84
2022-12-03T11:24:02.065Z,0.62
2022-12-03T11:26:41.563Z,0.63
2022-12-03T11:29:15.568Z,0.57
2022-12-03T11:31:48.712Z,0.88
2022-12-03T11:34:21.879Z,0.79
2022-12-03T11:37:11.997Z,0.66
2022-12-03T11:39:57.196Z,0.55
2022-12-03T11:42:29.792Z,0.73
2022-12-03T11:45:08.451Z,0.93
2022-12-03T11:47:47.416Z,0.93
2022-12-03T11:50:38.989Z,0.90
2022-12-03T11:53:15.564Z,0.88
2022-12-03T11:55:51.303Z,0.69
2022-12-03T11:58:31.634Z,0.85
2022-12-03T12:01:08.767Z,0.88
2022-12-03T12:04:06.686Z,0.75
2022-12-03T12:06:53.026Z,0.70
2022-12-03T12:09:37.871Z,0.83
2022-12-03T12:12:29.885Z,1.02
2022-12-03T12:15:00.941Z,0.84
2022-12-03T12:17:36.377Z,0.80
2022-12-03T12:20:15.580Z,0.99
2022-12-03T12:22:48.984Z,0.95
2022-12-03T12:25:32.249Z,0.94
2022-12-03T12:28:03.233Z,0.99
2022-12-03T12:30:35.292Z,1.08
2022-12-03T12:33:24.194Z,1.11
2022-12-03T12:35:54.548Z,1.11
2022-12-03T12:38:29.037Z,1.01
2022-12-03T12:41:02.174Z,1.10
2022-12-03T12:43:34.880Z,1.10
2022-12-03T12:46:46.076Z,1.30
2022-12-03T12:48:45.253Z,1.09
2022-12-03T12:51:20.342Z,1.17
2022-12-03T12:53:51.034Z,1.39
2022-12-03T12:56:28.278Z,1.26
2022-12-03T12:59:01.108Z,0.97
2022-12-03T13:01:36.518Z,0.95
2022-12-03T13:04:21.424Z,1.02
2022-12-03T13:06:54.653Z,1.05
2022-12-03T13:09:26.721Z,1.00
2022-12-03T13:12:03.473Z,0.89
2022-12-03T13:14:36.811Z,1.21
2022-12-03T13:17:23.567Z,1.18
2022-12-03T13:20:03.588Z,1.31
2022-12-03T13:22:27.155Z,1.31
2022-12-03T13:25:05.941Z,1.33
2022-12-03T13:27:36.044Z,1.29
2022-12-03T13:30:21.005Z,1.08
2022-12-03T13:32:50.884Z,1.11
2022-12-03T13:35:34.158Z,1.11
2022-12-03T13:38:05.760Z,1.20
2022-12-03T13:40:38.687Z,1.15
2022-12-03T13:43:17.060Z,1.14
2022-12-03T13:45:50.098Z,1.07
2022-12-03T13:48:34.819Z,1.01
2022-12-03T13:51:16.674Z,1.12
2022-12-03T13:53:50.127Z,1.18
2022-12-03T13:56:32.137Z,1.15
2022-12-03T13:59:04.325Z,1.18
2022-12-03T14:01:36.246Z,1.26
2022-12-03T14:04:07.852Z,1.00
2022-12-03T14:06:39.702Z,1.02
2022-12-03T14:09:10.195Z,1.31
2022-12-03T14:11:57.498Z,1.24
2022-12-03T14:14:27.652Z,1.20
2022-12-03T14:17:00.243Z,1.13
2022-12-03T14:19:30.146Z,1.13
2022-12-03T14:22:02.674Z,1.13
2022-12-03T14:24:32.470Z,1.17
2022-12-03T14:27:02.384Z,1.17
2022-12-03T14:29:34.158Z,1.14
2022-12-03T14:32:04.089Z,1.03
2022-12-03T14:34:33.997Z,1.05
2022-12-03T14:37:05.094Z,1.03
2022-12-03T14:39:34.515Z,1.33
2022-12-03T14:42:17.046Z,1.20
2022-12-03T14:44:52.311Z,1.16
2022-12-03T14:47:24.019Z,1.04
2022-12-03T14:49:55.464Z,1.04
2022-12-03T14:52:26.430Z,1.00
2022-12-03T14:54:56.022Z,0.93
2022-12-03T14:57:56.780Z,1.00
2022-12-03T15:00:26.926Z,1.00
2022-12-03T15:02:56.926Z,1.05
2022-12-03T15:05:28.975Z,0.89
2022-12-03T15:07:58.241Z,0.99
2022-12-03T15:10:28.030Z,0.88
2022-12-03T15:12:57.818Z,0.96
2022-12-03T15:15:27.876Z,0.95
2022-12-03T15:17:57.658Z,0.93
2022-12-03T15:20:27.461Z,0.90
2022-12-03T15:22:57.220Z,0.90
2022-12-03T15:25:27.214Z,1.29
2022-12-03T15:27:57.267Z,0.99
2022-12-03T15:30:27.139Z,0.94
2022-12-03T15:32:57.236Z,0.87
2022-12-03T15:35:27.104Z,0.96
2022-12-03T15:37:57.037Z,0.96
2022-12-03T15:40:27.160Z,0.86
2022-12-03T15:42:56.911Z,0.87
2022-12-03T15:45:26.788Z,1.07
2022-12-03T15:47:56.629Z,0.90
2022-12-03T15:50:26.790Z,0.97
2022-12-03T15:52:56.551Z,0.87
2022-12-03T15:55:26.567Z,0.96
2022-12-03T15:57:56.327Z,0.97
2022-12-03T16:00:26.206Z,0.94
2022-12-03T16:02:56.340Z,0.89
2022-12-03T16:05:27.005Z,0.84
2022-12-03T16:07:56.551Z,0.85
2022-12-03T16:10:26.393Z,0.96
2022-12-03T16:12:56.481Z,1.01
2022-12-03T16:15:27.419Z,0.97
2022-12-03T16:17:57.324Z,0.83
2022-12-03T16:20:27.201Z,0.85
2022-12-03T16:22:57.183Z,0.75
2022-12-03T16:25:28.132Z,0.79
2022-12-03T16:27:58.332Z,0.77
2022-12-03T16:30:29.669Z,0.81
2022-12-03T16:32:59.140Z,0.87
2022-12-03T16:35:29.138Z,0.78
2022-12-03T16:37:58.741Z,0.76
2022-12-03T16:40:28.998Z,0.78
2022-12-03T16:42:58.789Z,0.79
2022-12-03T16:45:35.914Z,0.96
2022-12-03T16:48:09.186Z,0.91
2022-12-03T16:50:39.308Z,0.82
2022-12-03T16:53:08.744Z,0.82
2022-12-03T16:55:44.988Z,0.98
2022-12-03T16:58:17.869Z,0.99
2022-12-03T17:00:48.884Z,0.75
2022-12-03T17:03:19.183Z,0.87
2022-12-03T17:05:50.987Z,0.98
2022-12-03T17:08:21.782Z,0.97
2022-12-03T17:10:51.623Z,0.97
2022-12-03T17:13:23.080Z,0.82
2022-12-03T17:15:52.912Z,0.87
2022-12-03T17:18:23.080Z,1.00
2022-12-03T17:20:53.369Z,0.99
2022-12-03T17:23:22.885Z,0.88
2022-12-03T17:25:52.702Z,0.89
2022-12-03T17:28:22.232Z,0.93
2022-12-03T17:30:52.133Z,0.87
2022-12-03T17:33:21.590Z,1.11
2022-12-03T17:35:51.392Z,1.10
2022-12-03T17:38:20.879Z,1.10
2022-12-03T17:40:50.843Z,1.11
2022-12-03T17:43:20.382Z,0.98
2022-12-03T17:45:50.322Z,0.94
2022-12-03T17:48:19.804Z,0.96
2022-12-03T17:50:50.162Z,0.86
2022-12-03T17:53:19.950Z,0.92
2022-12-03T17:55:49.749Z,0.86
2022-12-03T17:58:19.274Z,0.84
2022-12-03T18:00:49.081Z,1.03
2022-12-03T18:03:18.852Z,0.95
2022-12-03T18:05:48.689Z,0.93
2022-12-03T18:08:18.753Z,0.96
2022-12-03T18:10:48.929Z,1.05
2022-12-03T18:13:26.390Z,1.14
2022-12-03T18:15:57.359Z,1.13
2022-12-03T18:18:27.207Z,1.03
2022-12-03T18:20:58.983Z,0.98
2022-12-03T18:23:30.612Z,1.06
2022-12-03T18:26:01.922Z,1.09
2022-12-03T18:28:31.845Z,1.02
2022-12-03T18:31:01.907Z,1.03
2022-12-03T18:33:31.794Z,1.03
2022-12-03T18:36:01.580Z,1.03
2022-12-03T18:38:34.303Z,1.13
2022-12-03T18:41:04.167Z,1.09
2022-12-03T18:43:34.327Z,1.27
2022-12-03T18:46:04.748Z,1.15
2022-12-03T18:48:34.000Z,1.28
2022-12-03T18:51:03.449Z,1.23
2022-12-03T18:53:33.270Z,1.02
2022-12-03T18:56:03.059Z,1.05
2022-12-03T18:58:32.862Z,1.08
2022-12-03T19:01:02.693Z,1.00
2022-12-03T19:03:34.032Z,0.99
2022-12-03T19:06:03.890Z,1.01
2022-12-03T19:08:33.684Z,1.00
2022-12-03T19:11:11.671Z,1.06
2022-12-03T19:13:42.558Z,1.22
2022-12-03T19:16:17.082Z,1.13
2022-12-03T19:18:47.067Z,1.12
2022-12-03T19:21:18.601Z,1.10
2022-12-03T19:24:22.144Z,1.07
2022-12-03T19:26:20.152Z,1.11
2022-12-03T19:28:50.272Z,1.13
2022-12-03T19:31:19.804Z,1.10
2022-12-03T19:33:50.696Z,1.17
2022-12-03T19:36:25.473Z,1.06
2022-12-03T19:38:57.537Z,1.18
2022-12-03T19:41:31.167Z,1.20
2022-12-03T19:44:03.151Z,1.25
2022-12-03T19:46:32.707Z,1.30
2022-12-03T19:49:03.163Z,1.14
2022-12-03T19:51:34.995Z,1.13
2022-12-03T19:54:06.353Z,1.15
2022-12-03T19:56:36.336Z,1.21
2022-12-03T19:59:07.647Z,1.31
2022-12-03T20:01:39.274Z,1.38
2022-12-03T20:04:10.379Z,1.16
2022-12-03T20:06:40.569Z,1.28
2022-12-03T20:09:12.941Z,1.24
2022-12-03T20:11:44.498Z,1.16
2022-12-03T20:14:16.979Z,1.16
2022-12-03T20:16:47.954Z,1.22
2022-12-03T20:19:18.714Z,1.22
2022-12-03T20:21:48.386Z,1.49
2022-12-03T20:24:19.589Z,1.49
2022-12-03T20:26:49.409Z,1.33
2022-12-03T20:29:18.980Z,1.47
2022-12-03T20:31:48.890Z,1.45
2022-12-03T20:34:18.542Z,1.37
2022-12-03T20:36:48.332Z,1.40
2022-12-03T20:39:18.095Z,1.32
2022-12-03T20:41:47.911Z,1.44
2022-12-03T20:44:17.543Z,1.53
2022-12-03T20:46:47.347Z,1.56
2022-12-03T20:49:17.005Z,1.50
2022-12-03T20:51:47.327Z,1.49
2022-12-03T20:54:18.066Z,1.49
2022-12-03T20:56:47.553Z,1.53
2022-12-03T20:59:18.702Z,1.53
2022-12-03T21:01:47.741Z,1.53
2022-12-03T21:04:18.103Z,1.60
2022-12-03T21:06:47.781Z,1.70
2022-12-03T21:09:17.599Z,1.45
2022-12-03T21:11:47.548Z,1.72
2022-12-03T21:14:17.039Z,1.94
2022-12-03T21:19:20.642Z,1.68
2022-12-03T21:21:50.337Z,1.77
2022-12-03T21:24:19.840Z,1.51
2022-12-03T21:26:50.199Z,1.58
2022-12-03T21:29:19.985Z,1.60
2022-12-03T21:31:49.847Z,1.50
2022-12-03T21:34:19.430Z,1.66
2022-12-03T21:36:49.305Z,1.54
2022-12-03T21:39:19.354Z,1.60
2022-12-03T21:42:33.429Z,1.56
2022-12-03T21:44:21.385Z,1.45
2022-12-03T21:47:11.018Z,1.73
2022-12-03T21:49:22.748Z,1.54
2022-12-03T21:51:52.529Z,1.69
2022-12-03T21:54:22.311Z,1.54
2022-12-03T21:56:52.166Z,1.47
2022-12-03T21:59:21.942Z,1.80
2022-12-03T22:01:52.208Z,1.66
2022-12-03T22:04:21.794Z,1.80
2022-12-03T22:06:51.596Z,1.69
2022-12-03T22:09:26.305Z,1.63
2022-12-03T22:11:54.294Z,1.60
2022-12-03T22:14:24.251Z,1.58
2022-12-03T22:16:54.235Z,1.61
2022-12-03T22:19:25.399Z,1.58
2022-12-03T22:21:55.222Z,1.46
2022-12-03T22:24:25.127Z,1.48
2022-12-03T22:26:55.070Z,1.45
2022-12-03T22:29:24.660Z,1.40
2022-12-03T22:31:54.473Z,1.45
2022-12-03T22:34:24.338Z,1.49
2022-12-03T22:36:54.189Z,1.50
2022-12-03T22:39:23.905Z,1.46
2022-12-03T22:41:54.475Z,1.63
2022-12-03T22:44:24.182Z,1.59
2022-12-03T22:46:55.028Z,1.53
2022-12-03T22:49:25.111Z,1.54
2022-12-03T22:51:54.948Z,1.52
2022-12-03T22:54:24.603Z,1.46
2022-12-03T22:56:55.395Z,1.47
2022-12-03T22:59:25.307Z,1.70
2022-12-03T23:01:55.172Z,1.70
2022-12-03T23:04:26.612Z,1.51
2022-12-03T23:06:56.444Z,1.53
2022-12-03T23:09:26.246Z,1.42
2022-12-03T23:11:57.151Z,1.43
2022-12-03T23:14:27.005Z,1.47
2022-12-03T23:16:56.801Z,1.46
2022-12-03T23:19:27.199Z,1.49
2022-12-03T23:21:56.940Z,1.41
2022-12-03T23:24:27.201Z,1.65
2022-12-03T23:26:58.351Z,1.69
2022-12-03T23:29:28.257Z,1.59
2022-12-03T23:31:58.728Z,1.54
2022-12-03T23:34:28.301Z,1.54
2022-12-03T23:36:58.326Z,1.36
2022-12-03T23:39:28.174Z,1.48
2022-12-03T23:41:57.985Z,1.50
2022-12-03T23:44:29.005Z,1.68
2022-12-03T23:46:58.978Z,1.68
2022-12-03T23:49:29.436Z,1.55
2022-12-03T23:51:59.298Z,1.51
2022-12-03T23:54:29.271Z,1.47
2022-12-03T23:56:59.309Z,1.47
2022-12-03T23:59:29.120Z,1.77
